Time;durP1;ratioP1;P1;durP2;ratioP2;P2;SDS_P1;SDS_P2;PMS_P1;PMS_P2;Temp;Humidity;BMP_temperature;BMP_pressure;BME280_temperature;BME280_humidity;BME280_pressure;Samples;Min_cycle;Max_cycle;Signal;HPM_P1;HPM_P2
2022/02/15 00:01:21;;;;;;;9.93;5.50;;;8.00;99.90;;;;;;5115655;28;20438;-83
2022/02/15 00:03:47;;;;;;;8.95;5.40;;;8.10;99.90;;;;;;5116475;28;20377;-82
2022/02/15 00:06:13;;;;;;;5.45;4.55;;;8.00;99.90;;;;;;5113829;28;20537;-83
2022/02/15 00:08:38;;;;;;;8.38;5.10;;;7.90;99.90;;;;;;5113085;28;20377;-83
2022/02/15 00:11:04;;;;;;;9.38;5.15;;;7.90;99.90;;;;;;5114494;28;20359;-82
2022/02/15 00:13:29;;;;;;;7.23;4.67;;;7.80;99.90;;;;;;5115138;28;20405;-82
2022/02/15 00:15:55;;;;;;;8.23;4.80;;;7.80;99.90;;;;;;5115828;28;20379;-82
2022/02/15 00:18:21;;;;;;;7.43;4.95;;;7.70;99.90;;;;;;5116529;28;20467;-82
2022/02/15 00:20:47;;;;;;;6.50;5.30;;;7.70;99.90;;;;;;5097437;28;20395;-82
2022/02/15 00:23:12;;;;;;;10.10;5.53;;;7.60;99.90;;;;;;5096109;28;20733;-82
2022/02/15 00:25:38;;;;;;;7.80;5.10;;;7.60;99.90;;;;;;5114769;28;20468;-82
2022/02/15 00:28:04;;;;;;;10.10;5.20;;;7.50;99.90;;;;;;5097948;28;20377;-82
2022/02/15 00:30:30;;;;;;;6.45;4.88;;;7.50;99.90;;;;;;5098310;28;20382;-83
2022/02/15 00:32:55;;;;;;;8.48;5.35;;;7.40;99.90;;;;;;5116914;28;20788;-82
2022/02/15 00:35:21;;;;;;;7.00;5.30;;;7.30;99.90;;;;;;5099356;28;20440;-83
2022/02/15 00:37:47;;;;;;;9.00;5.70;;;7.30;99.90;;;;;;5119048;28;20371;-82
2022/02/15 00:40:13;;;;;;;8.63;5.47;;;7.30;99.90;;;;;;5118874;28;20456;-83
2022/02/15 00:42:40;;;;;;;7.97;5.10;;;7.30;99.90;;;;;;5099639;28;20378;-83
2022/02/15 00:45:06;;;;;;;8.10;5.30;;;7.20;99.90;;;;;;5117772;28;20375;-82
2022/02/15 00:47:32;;;;;;;7.18;4.70;;;7.20;99.90;;;;;;5118608;28;20382;-82
2022/02/15 00:49:58;;;;;;;9.25;4.85;;;7.20;99.90;;;;;;5118991;28;20384;-83
2022/02/15 00:52:23;;;;;;;8.50;5.30;;;7.10;99.90;;;;;;5119371;28;20967;-82
2022/02/15 00:54:49;;;;;;;7.45;4.80;;;7.20;99.90;;;;;;5099666;28;20398;-84
2022/02/15 00:57:16;;;;;;;7.22;5.07;;;7.20;99.90;;;;;;5119255;28;20379;-83
2022/02/15 00:59:42;;;;;;;6.85;4.65;;;7.10;99.90;;;;;;5101437;28;20373;-83
2022/02/15 01:02:08;;;;;;;7.15;4.63;;;7.20;99.90;;;;;;5102259;28;20417;-83
2022/02/15 01:04:34;;;;;;;6.13;4.70;;;7.30;99.90;;;;;;5119949;28;20375;-83
2022/02/15 01:06:59;;;;;;;8.67;5.10;;;7.30;99.90;;;;;;5117428;28;20387;-83
2022/02/15 01:09:25;;;;;;;7.65;4.90;;;7.30;99.90;;;;;;5097932;28;20383;-83
2022/02/15 01:11:50;;;;;;;7.47;4.88;;;7.20;99.90;;;;;;5117858;28;20367;-82
2022/02/15 01:14:18;;;;;;;7.53;5.13;;;7.30;99.90;;;;;;5098858;28;20403;-82
2022/02/15 01:16:44;;;;;;;10.32;5.45;;;7.30;99.90;;;;;;5117053;28;20378;-81
2022/02/15 01:19:10;;;;;;;5.93;4.50;;;7.20;99.90;;;;;;5117684;28;20444;-82
2022/02/15 01:21:35;;;;;;;6.95;5.13;;;7.10;99.90;;;;;;5100153;28;20481;-83
2022/02/15 01:24:01;;;;;;;7.88;5.35;;;7.20;99.90;;;;;;5118957;28;20398;-82
2022/02/15 01:26:27;;;;;;;8.90;5.00;;;7.20;99.90;;;;;;5100828;28;20430;-80
2022/02/15 01:28:52;;;;;;;8.75;5.53;;;7.10;99.90;;;;;;5098887;28;20463;-83
2022/02/15 01:31:18;;;;;;;8.55;5.63;;;7.10;99.90;;;;;;5117003;28;20367;-84
2022/02/15 01:33:44;;;;;;;7.75;5.25;;;7.10;99.90;;;;;;5117146;28;20413;-83
2022/02/15 01:36:09;;;;;;;9.03;5.23;;;7.10;99.90;;;;;;5098870;28;20387;-83
2022/02/15 01:38:35;;;;;;;9.17;5.73;;;7.10;99.90;;;;;;5116316;28;20382;-82
2022/02/15 01:41:01;;;;;;;6.88;4.85;;;7.00;99.90;;;;;;5118346;28;20385;-83
2022/02/15 01:43:27;;;;;;;7.13;5.40;;;6.90;99.90;;;;;;5117904;28;20382;-83
2022/02/15 01:45:53;;;;;;;8.88;5.30;;;6.90;99.90;;;;;;5099506;28;20394;-83
2022/02/15 01:48:18;;;;;;;9.32;5.55;;;6.80;99.90;;;;;;5098930;28;20860;-83
2022/02/15 01:50:44;;;;;;;8.20;5.60;;;6.70;99.90;;;;;;5117604;28;20371;-83
2022/02/15 01:53:10;;;;;;;7.20;5.53;;;6.70;99.90;;;;;;5118503;28;20405;-83
2022/02/15 01:55:36;;;;;;;9.83;5.67;;;6.60;99.90;;;;;;5100009;28;20458;-82
2022/02/15 01:58:02;;;;;;;10.10;5.77;;;6.60;99.90;;;;;;5117588;28;20362;-83
2022/02/15 02:00:27;;;;;;;7.70;5.70;;;6.40;99.90;;;;;;5118307;28;20363;-82
2022/02/15 02:02:53;;;;;;;8.13;5.43;;;6.40;99.90;;;;;;5118680;28;20412;-82
2022/02/15 02:08:03;;;;;;;7.32;5.35;;;6.20;99.90;;;;;;5119397;28;20703;-82
2022/02/15 02:10:29;;;;;;;7.13;5.30;;;6.10;99.90;;;;;;5119511;28;20407;-83
2022/02/15 02:12:54;;;;;;;9.00;5.70;;;6.00;99.90;;;;;;5119771;28;20424;-82
2022/02/15 02:15:22;;;;;;;7.28;5.97;;;5.90;99.90;;;;;;5119899;28;20441;-82
2022/02/15 02:17:48;;;;;;;6.65;5.38;;;5.80;99.90;;;;;;5101339;28;20460;-82
2022/02/15 02:20:14;;;;;;;8.45;6.10;;;5.70;99.90;;;;;;5119382;28;20383;-82
2022/02/15 02:22:40;;;;;;;8.73;5.55;;;5.50;99.90;;;;;;5100813;28;20401;-82
2022/02/15 02:25:10;;;;;;;11.43;6.53;;;5.50;99.90;;;;;;5117951;28;20460;-82
2022/02/15 02:27:36;;;;;;;8.85;6.10;;;5.50;99.90;;;;;;5118686;28;20386;-82
2022/02/15 02:30:03;;;;;;;9.15;5.97;;;5.50;99.90;;;;;;5117301;28;20374;-82
2022/02/15 02:32:31;;;;;;;10.27;6.15;;;5.40;99.90;;;;;;5099599;28;20383;-82
2022/02/15 02:34:57;;;;;;;6.83;5.40;;;5.30;99.90;;;;;;5099853;28;20489;-82
2022/02/15 02:37:24;;;;;;;10.35;6.28;;;5.30;99.90;;;;;;5117850;28;20448;-82
2022/02/15 02:39:52;;;;;;;9.60;6.43;;;5.20;99.90;;;;;;5116217;28;20397;-82
2022/02/15 02:42:20;;;;;;;8.73;6.45;;;5.10;99.90;;;;;;5117499;28;20381;-82
2022/02/15 02:44:47;;;;;;;8.63;5.95;;;5.10;99.90;;;;;;5097695;28;20461;-82
2022/02/15 02:47:13;;;;;;;9.90;6.32;;;5.10;99.90;;;;;;5098583;28;20450;-82
2022/02/15 02:49:39;;;;;;;10.00;6.37;;;5.00;99.90;;;;;;5099257;28;21517;-82
2022/02/15 02:52:07;;;;;;;9.38;6.63;;;4.90;99.90;;;;;;5117183;28;20386;-83
2022/02/15 02:54:33;;;;;;;9.75;6.20;;;4.80;99.90;;;;;;5116528;28;20386;-82
2022/02/15 02:57:01;;;;;;;10.52;6.78;;;4.70;99.90;;;;;;5116532;28;20402;-82
2022/02/15 02:59:28;;;;;;;8.53;6.40;;;4.70;99.90;;;;;;5099287;28;20473;-82
2022/02/15 03:01:53;;;;;;;10.32;6.65;;;4.60;99.90;;;;;;5116833;28;20374;-82
2022/02/15 03:04:20;;;;;;;7.80;6.18;;;4.50;99.90;;;;;;5117045;28;20390;-82
2022/02/15 03:06:45;;;;;;;7.32;6.13;;;4.40;99.90;;;;;;5115346;28;20385;-81
2022/02/15 03:09:11;;;;;;;8.97;6.37;;;4.40;99.90;;;;;;5116453;28;20363;-82
2022/02/15 03:11:37;;;;;;;9.60;6.50;;;4.30;99.90;;;;;;5116821;28;20363;-81
2022/02/15 03:14:03;;;;;;;8.48;6.32;;;4.20;99.90;;;;;;5116939;28;20394;-83
2022/02/15 03:16:28;;;;;;;8.53;6.67;;;4.10;99.90;;;;;;5116712;28;20362;-83
2022/02/15 03:18:55;;;;;;;8.45;6.60;;;4.10;99.90;;;;;;5099222;28;20469;-82
2022/02/15 03:21:20;;;;;;;9.30;6.50;;;4.10;99.90;;;;;;5115323;28;20379;-83
2022/02/15 03:23:46;;;;;;;9.50;6.53;;;4.10;99.90;;;;;;5118925;28;20370;-82
2022/02/15 03:26:12;;;;;;;11.47;6.80;;;4.00;99.90;;;;;;5103275;28;20447;-82
2022/02/15 03:28:38;;;;;;;11.45;6.82;;;4.00;99.90;;;;;;5119588;28;20370;-81
2022/02/15 03:31:04;;;;;;;8.83;6.47;;;4.00;99.90;;;;;;5119895;28;20375;-82
2022/02/15 03:33:31;;;;;;;9.05;6.90;;;4.00;99.90;;;;;;5101542;28;20406;-82
2022/02/15 03:35:57;;;;;;;10.70;6.80;;;4.10;99.90;;;;;;5100293;28;20379;-82
2022/02/15 03:38:23;;;;;;;9.85;7.25;;;4.00;99.90;;;;;;5099215;28;20386;-82
2022/02/15 03:43:33;;;;;;;10.15;8.25;;;4.00;99.90;;;;;;5117525;28;20402;-82
2022/02/15 03:45:59;;;;;;;10.57;7.30;;;4.00;99.90;;;;;;5116991;28;20868;-82
2022/02/15 03:48:25;;;;;;;9.20;7.00;;;4.00;99.90;;;;;;5099221;28;20513;-83
2022/02/15 03:50:50;;;;;;;11.80;7.60;;;4.00;99.90;;;;;;5116159;28;20382;-82
2022/02/15 03:53:17;;;;;;;9.07;6.80;;;4.00;99.90;;;;;;5100709;28;20466;-82
2022/02/15 03:55:43;;;;;;;9.10;6.38;;;4.20;99.90;;;;;;5120107;28;20375;-83
2022/02/15 03:58:09;;;;;;;8.70;6.77;;;4.20;99.90;;;;;;5117906;28;20393;-82
2022/02/15 04:00:35;;;;;;;8.93;6.78;;;4.20;99.90;;;;;;5101406;28;21283;-82
2022/02/15 04:03:01;;;;;;;7.22;6.53;;;4.30;99.90;;;;;;5119303;28;20379;-83
2022/02/15 04:05:26;;;;;;;8.35;6.43;;;4.50;99.90;;;;;;5100587;28;20374;-82
2022/02/15 04:07:52;;;;;;;8.23;6.47;;;4.40;99.90;;;;;;5119012;28;20382;-82
2022/02/15 04:10:19;;;;;;;7.78;6.30;;;4.50;99.90;;;;;;5119784;28;20415;-82
2022/02/15 04:12:45;;;;;;;10.07;6.50;;;4.40;99.90;;;;;;5120371;28;20728;-82
2022/02/15 04:15:11;;;;;;;9.38;6.35;;;4.40;99.90;;;;;;5102311;28;20482;-82
2022/02/15 04:17:37;;;;;;;7.95;6.25;;;4.50;99.90;;;;;;5102207;28;20371;-83
2022/02/15 04:20:04;;;;;;;7.80;6.30;;;4.40;99.90;;;;;;5121145;28;20385;-83
2022/02/15 04:22:30;;;;;;;8.77;6.45;;;4.50;99.90;;;;;;5101387;28;20714;-83
2022/02/15 04:24:55;;;;;;;10.35;6.57;;;4.50;99.90;;;;;;5121092;28;20378;-82
2022/02/15 04:27:22;;;;;;;8.85;6.57;;;4.50;99.90;;;;;;5120576;28;20375;-82
2022/02/15 04:29:48;;;;;;;10.77;7.63;;;4.40;99.90;;;;;;5120873;28;20378;-82
2022/02/15 04:32:14;;;;;;;9.47;7.23;;;4.30;99.90;;;;;;5120908;28;20378;-82
2022/02/15 04:34:40;;;;;;;10.88;7.20;;;4.20;99.90;;;;;;5102074;28;20395;-82
2022/02/15 04:37:06;;;;;;;8.70;6.88;;;4.20;99.90;;;;;;5118772;28;20792;-82
2022/02/15 04:39:32;;;;;;;9.27;6.97;;;4.10;99.90;;;;;;5118112;28;20465;-82
2022/02/15 04:41:57;;;;;;;11.43;7.65;;;4.10;99.90;;;;;;5099721;28;20370;-82
2022/02/15 04:44:23;;;;;;;9.55;7.20;;;4.10;99.90;;;;;;5120037;28;20393;-83
2022/02/15 04:46:50;;;;;;;11.05;7.63;;;4.20;99.90;;;;;;5098725;28;20766;-83
2022/02/15 04:49:16;;;;;;;9.30;7.45;;;4.20;99.90;;;;;;5118367;28;20880;-82
2022/02/15 04:51:41;;;;;;;11.20;7.53;;;4.20;99.90;;;;;;5116307;28;20409;-84
2022/02/15 04:54:07;;;;;;;9.53;7.13;;;4.20;99.90;;;;;;5098083;28;20414;-84
2022/02/15 04:56:33;;;;;;;10.90;8.10;;;4.30;99.90;;;;;;5095919;28;20383;-81
2022/02/15 04:58:59;;;;;;;10.95;7.63;;;4.30;99.90;;;;;;5098654;28;21026;-83
2022/02/15 05:01:25;;;;;;;10.20;7.55;;;4.30;99.90;;;;;;5116711;28;20741;-82
2022/02/15 05:03:50;;;;;;;11.00;7.20;;;4.40;99.90;;;;;;5116374;28;20379;-82
2022/02/15 05:06:16;;;;;;;9.33;7.57;;;4.50;99.90;;;;;;5115672;28;20371;-82
2022/02/15 05:08:42;;;;;;;11.50;7.60;;;4.50;99.90;;;;;;5116567;28;20382;-84
2022/02/15 05:11:07;;;;;;;10.30;7.18;;;4.60;99.90;;;;;;5098962;28;20953;-82
2022/02/15 05:13:33;;;;;;;10.00;7.05;;;4.50;99.90;;;;;;5116776;28;20409;-82
2022/02/15 05:15:58;;;;;;;12.27;7.07;;;4.60;99.90;;;;;;5115633;28;20374;-82
2022/02/15 05:18:25;;;;;;;9.57;6.97;;;4.60;99.90;;;;;;5098337;28;20948;-82
2022/02/15 05:20:51;;;;;;;8.70;6.77;;;4.60;99.90;;;;;;5097499;28;20882;-82
2022/02/15 05:23:17;;;;;;;10.33;6.70;;;4.60;99.90;;;;;;5116654;28;20398;-82
2022/02/15 05:25:43;;;;;;;9.70;6.57;;;4.60;99.90;;;;;;5116937;28;20410;-83
2022/02/15 05:28:09;;;;;;;8.20;6.77;;;4.50;99.90;;;;;;5117712;28;20370;-83
2022/02/15 05:30:34;;;;;;;10.77;7.68;;;4.50;99.90;;;;;;5115721;28;20362;-83
2022/02/15 05:33:00;;;;;;;14.80;8.57;;;4.60;99.90;;;;;;5096185;28;20975;-83
2022/02/15 05:35:26;;;;;;;15.53;9.30;;;4.50;99.90;;;;;;5113159;28;20447;-83
2022/02/15 05:37:51;;;;;;;13.35;9.40;;;4.50;99.90;;;;;;5113758;28;20535;-83
2022/02/15 05:40:19;;;;;;;14.32;9.25;;;4.50;99.90;;;;;;5113530;28;20888;-84
2022/02/15 05:42:45;;;;;;;11.80;8.18;;;4.50;99.90;;;;;;5111189;27;20385;-82
2022/02/15 05:45:11;;;;;;;12.38;8.15;;;4.40;99.90;;;;;;5132517;27;20365;-84
2022/02/15 05:47:37;;;;;;;10.68;7.13;;;4.40;99.90;;;;;;5079189;28;20384;-82
2022/02/15 05:52:47;;;;;;;9.63;6.88;;;4.30;99.90;;;;;;5095464;28;20371;-82
2022/02/15 05:55:14;;;;;;;8.65;6.82;;;4.30;99.90;;;;;;5110316;28;20398;-81
2022/02/15 05:57:41;;;;;;;11.07;7.40;;;4.30;99.90;;;;;;5102331;28;20378;-81
2022/02/15 06:00:09;;;;;;;9.07;6.65;;;4.30;99.90;;;;;;5116830;28;20772;-82
2022/02/15 06:02:34;;;;;;;11.27;7.70;;;4.30;99.90;;;;;;5113009;28;20371;-81
2022/02/15 06:05:00;;;;;;;10.83;7.33;;;4.30;99.90;;;;;;5111572;28;20381;-81
2022/02/15 06:07:26;;;;;;;9.93;7.70;;;4.30;99.90;;;;;;5084065;27;20381;-81
2022/02/15 06:09:52;;;;;;;11.90;7.77;;;4.20;99.90;;;;;;5132459;27;20404;-83
2022/02/15 06:12:18;;;;;;;12.23;7.28;;;4.30;99.90;;;;;;5135054;27;20835;-82
2022/02/15 06:14:44;;;;;;;12.13;7.82;;;4.40;99.90;;;;;;5134057;27;20401;-81
2022/02/15 06:17:10;;;;;;;10.65;8.10;;;4.40;99.90;;;;;;5111981;27;20384;-82
2022/02/15 06:19:36;;;;;;;10.05;7.53;;;4.40;99.90;;;;;;5088500;28;20448;-82
2022/02/15 06:22:02;;;;;;;12.50;8.00;;;4.40;99.90;;;;;;5094421;28;20415;-83
2022/02/15 06:24:28;;;;;;;11.82;7.88;;;4.40;99.90;;;;;;5092044;28;20897;-80
2022/02/15 06:26:54;;;;;;;11.07;7.40;;;4.40;99.90;;;;;;5089667;28;20416;-81
2022/02/15 06:29:20;;;;;;;11.43;7.32;;;4.40;99.90;;;;;;5071029;28;20936;-82
2022/02/15 06:31:46;;;;;;;11.00;7.83;;;4.40;99.90;;;;;;5073233;28;20384;-81
2022/02/15 06:34:11;;;;;;;12.98;7.32;;;4.40;99.90;;;;;;5073854;28;20404;-81
2022/02/15 06:36:37;;;;;;;11.05;7.47;;;4.40;99.90;;;;;;5072473;28;20866;-81
2022/02/15 06:39:04;;;;;;;10.37;7.50;;;4.30;99.90;;;;;;5092901;28;20590;-81
2022/02/15 06:41:30;;;;;;;12.02;8.35;;;4.50;99.90;;;;;;5074935;28;20424;-82
2022/02/15 06:43:55;;;;;;;13.53;8.73;;;4.60;99.90;;;;;;5075707;28;20369;-83
2022/02/15 06:46:21;;;;;;;11.40;8.50;;;4.50;99.90;;;;;;5095512;28;20438;-83
2022/02/15 06:48:47;;;;;;;12.63;8.60;;;4.50;99.90;;;;;;5095095;28;20507;-82
2022/02/15 06:51:12;;;;;;;11.40;7.90;;;4.60;99.90;;;;;;5095433;28;20372;-82
2022/02/15 06:53:38;;;;;;;9.63;7.43;;;4.60;99.90;;;;;;5076951;28;20886;-83
2022/02/15 06:56:09;;;;;;;13.07;7.70;;;4.60;99.90;;;;;;5094342;28;20376;-83
2022/02/15 06:58:34;;;;;;;12.82;7.78;;;4.70;99.90;;;;;;5097280;28;20416;-82
2022/02/15 07:01:00;;;;;;;12.30;7.53;;;4.70;99.90;;;;;;5098543;28;20380;-83
2022/02/15 07:03:25;;;;;;;11.93;7.10;;;4.70;99.90;;;;;;5099627;28;20470;-82
2022/02/15 07:05:51;;;;;;;10.85;7.00;;;4.80;99.90;;;;;;5098991;28;20401;-83
2022/02/15 07:08:17;;;;;;;9.60;7.47;;;4.90;99.90;;;;;;5096607;28;20414;-83
2022/02/15 07:10:42;;;;;;;10.27;6.63;;;4.90;99.90;;;;;;5099507;28;20963;-82
2022/02/15 07:13:08;;;;;;;11.63;7.10;;;5.10;99.90;;;;;;5097728;28;20380;-83
2022/02/15 07:15:34;;;;;;;10.82;6.80;;;5.30;99.90;;;;;;5095697;28;20455;-84
2022/02/15 07:17:59;;;;;;;12.63;7.90;;;5.20;99.90;;;;;;5077938;28;20380;-83
2022/02/15 07:20:25;;;;;;;13.00;7.00;;;5.20;99.90;;;;;;5098842;28;20400;-81
2022/02/15 07:22:50;;;;;;;9.82;7.13;;;5.20;99.90;;;;;;5116179;28;20369;-83
2022/02/15 07:25:16;;;;;;;11.65;6.70;;;5.20;99.90;;;;;;5124381;27;20396;-83
2022/02/15 07:27:43;;;;;;;10.27;7.10;;;5.20;99.90;;;;;;5111113;28;21302;-83
2022/02/15 07:30:09;;;;;;;10.60;6.57;;;5.20;99.90;;;;;;5116321;28;20402;-83
2022/02/15 07:32:34;;;;;;;7.37;5.90;;;5.20;99.90;;;;;;5114827;28;20410;-83
2022/02/15 07:35:00;;;;;;;11.50;6.70;;;5.10;99.90;;;;;;5114734;28;20471;-83
2022/02/15 07:37:26;;;;;;;10.52;6.88;;;5.20;99.90;;;;;;5104248;27;20923;-84
2022/02/15 07:39:52;;;;;;;9.38;6.70;;;5.10;99.90;;;;;;5136155;27;20401;-83
2022/02/15 07:42:19;;;;;;;11.05;6.75;;;5.10;99.90;;;;;;5113434;27;20374;-83
2022/02/15 07:44:45;;;;;;;9.45;7.00;;;5.20;99.90;;;;;;5111672;28;20452;-83
2022/02/15 07:47:10;;;;;;;10.07;7.05;;;5.20;99.90;;;;;;5113609;28;20364;-82
2022/02/15 07:49:36;;;;;;;11.48;6.68;;;5.20;99.90;;;;;;5102058;28;20377;-84
2022/02/15 07:52:04;;;;;;;12.13;6.40;;;5.40;99.90;;;;;;5077107;28;20411;-82
2022/02/15 07:54:30;;;;;;;12.23;7.00;;;5.70;99.90;;;;;;5115579;28;20456;-82
2022/02/15 07:56:55;;;;;;;9.75;6.13;;;6.00;99.90;;;;;;5114746;28;20385;-84
2022/02/15 07:59:21;;;;;;;9.10;6.05;;;6.20;99.90;;;;;;5114835;28;20371;-82
2022/02/15 08:01:47;;;;;;;9.93;5.20;;;6.80;99.90;;;;;;5113159;28;20736;-83
2022/02/15 08:04:13;;;;;;;9.38;5.55;;;7.30;99.90;;;;;;5102148;28;20387;-83
2022/02/15 08:06:42;;;;;;;14.30;6.32;;;7.50;99.90;;;;;;5095481;28;20376;-83
2022/02/15 08:09:14;;;;;;;11.13;5.53;;;7.80;99.90;;;;;;5096532;28;20475;-82
2022/02/15 08:11:44;;;;;;;10.02;5.43;;;7.70;99.90;;;;;;5077898;28;20427;-83
2022/02/15 08:14:11;;;;;;;9.38;5.32;;;7.90;99.90;;;;;;5095113;28;20451;-83
2022/02/15 08:16:36;;;;;;;9.27;5.20;;;7.90;99.90;;;;;;5095878;28;20989;-82
2022/02/15 08:19:02;;;;;;;9.87;5.50;;;8.10;99.90;;;;;;5095283;28;20412;-83
2022/02/15 08:21:28;;;;;;;8.15;4.97;;;8.20;99.90;;;;;;5106132;28;20378;-82
2022/02/15 08:23:53;;;;;;;11.02;5.70;;;8.20;99.90;;;;;;5115060;28;20955;-80
2022/02/15 08:26:19;;;;;;;9.43;5.30;;;8.10;99.90;;;;;;5114417;28;20367;-81
2022/02/15 08:28:48;;;;;;;9.98;5.20;;;8.20;99.90;;;;;;5116550;28;20367;-82
2022/02/15 08:31:14;;;;;;;9.52;5.28;;;8.10;99.90;;;;;;5087810;28;20384;-82
2022/02/15 08:33:40;;;;;;;10.23;5.38;;;8.30;99.90;;;;;;5094926;28;20415;-82
2022/02/15 08:36:05;;;;;;;10.15;4.93;;;8.50;99.90;;;;;;5076532;28;20405;-83
2022/02/15 08:38:33;;;;;;;9.75;5.05;;;8.60;99.90;;;;;;5097770;28;20382;-83
2022/02/15 08:41:00;;;;;;;10.25;5.32;;;8.60;99.90;;;;;;5095265;28;20904;-82
2022/02/15 08:43:26;;;;;;;9.50;4.82;;;8.70;99.90;;;;;;5110611;28;20406;-83
2022/02/15 08:45:52;;;;;;;9.60;5.07;;;8.90;99.90;;;;;;5072741;28;20886;-83
2022/02/15 08:48:17;;;;;;;10.17;5.50;;;9.10;99.90;;;;;;5102826;28;20396;-81
2022/02/15 08:50:43;;;;;;;10.17;5.13;;;9.10;99.90;;;;;;5112735;28;20458;-82
2022/02/15 08:53:08;;;;;;;9.57;5.00;;;9.20;99.90;;;;;;5093706;28;20375;-82
2022/02/15 08:55:34;;;;;;;9.67;5.40;;;9.10;99.90;;;;;;5111417;28;20474;-83
2022/02/15 08:58:00;;;;;;;8.80;5.13;;;8.90;99.90;;;;;;5111825;28;20466;-81
2022/02/15 09:00:25;;;;;;;8.52;4.55;;;8.80;99.90;;;;;;5093768;28;20879;-82
2022/02/15 09:02:51;;;;;;;9.57;5.07;;;8.70;99.90;;;;;;5093884;28;20417;-82
2022/02/15 09:05:17;;;;;;;10.27;5.03;;;8.70;99.90;;;;;;5094867;28;20432;-82
2022/02/15 09:07:43;;;;;;;9.27;5.05;;;8.70;99.90;;;;;;5094348;28;20875;-82
2022/02/15 09:10:09;;;;;;;9.02;5.47;;;8.80;99.90;;;;;;5094084;28;20541;-82
2022/02/15 09:12:34;;;;;;;9.68;5.18;;;8.90;99.90;;;;;;5112162;28;20378;-82
2022/02/15 09:15:00;;;;;;;10.25;5.28;;;8.90;99.90;;;;;;5114450;28;20409;-82
2022/02/15 09:17:26;;;;;;;9.98;5.32;;;9.10;99.90;;;;;;5112455;28;20371;-82
2022/02/15 09:19:51;;;;;;;12.13;5.37;;;9.10;99.90;;;;;;5113167;28;20406;-82
2022/02/15 09:22:17;;;;;;;11.30;5.15;;;9.30;99.90;;;;;;5113218;28;20375;-82
2022/02/15 09:24:44;;;;;;;9.38;4.95;;;9.20;99.90;;;;;;5114089;28;20398;-83
2022/02/15 09:27:10;;;;;;;8.38;4.85;;;9.10;99.90;;;;;;5114825;28;20370;-82
2022/02/15 09:29:36;;;;;;;11.20;5.18;;;9.30;99.90;;;;;;5116008;28;20401;-82
2022/02/15 09:32:01;;;;;;;9.40;5.07;;;9.40;99.90;;;;;;5112980;28;20733;-81
2022/02/15 09:34:27;;;;;;;9.67;5.30;;;9.40;99.90;;;;;;5114334;28;20811;-82
2022/02/15 09:36:53;;;;;;;8.93;5.20;;;9.40;99.90;;;;;;5095756;28;20386;-82
2022/02/15 09:39:19;;;;;;;9.82;5.07;;;9.50;99.90;;;;;;5112890;28;20429;-83
2022/02/15 09:41:45;;;;;;;10.88;5.90;;;9.60;99.90;;;;;;5112154;28;20498;-81
2022/02/15 09:44:11;;;;;;;10.80;5.47;;;9.60;99.90;;;;;;5095532;28;20379;-82
2022/02/15 09:46:37;;;;;;;8.82;5.43;;;9.60;99.90;;;;;;5094129;28;20382;-82
2022/02/15 09:49:02;;;;;;;11.05;5.80;;;9.70;99.90;;;;;;5094797;28;20381;-83
2022/02/15 09:51:29;;;;;;;10.00;5.63;;;9.90;99.90;;;;;;5114100;28;20363;-81
2022/02/15 09:53:55;;;;;;;9.23;5.45;;;9.90;99.90;;;;;;5113752;28;20470;-82
2022/02/15 09:56:21;;;;;;;9.70;6.95;;;10.00;99.90;;;;;;5112332;28;20387;-81
2022/02/15 09:58:47;;;;;;;10.95;6.10;;;10.10;99.90;;;;;;5096441;28;20440;-82
2022/02/15 10:01:15;;;;;;;10.77;5.90;;;10.10;99.90;;;;;;5110417;28;20383;-83
2022/02/15 10:04:00;;;;;;;14.32;7.47;;;10.20;99.90;;;;;;5107384;28;20390;-83
2022/02/15 10:06:30;;;;;;;10.20;6.07;;;10.30;99.90;;;;;;5109157;27;20775;-83
2022/02/15 10:08:58;;;;;;;10.27;6.78;;;10.60;99.90;;;;;;5117733;27;20389;-82
2022/02/15 10:11:34;;;;;;;10.73;6.60;;;10.60;99.90;;;;;;5132340;27;20417;-82
2022/02/15 10:14:00;;;;;;;10.23;6.25;;;10.50;99.90;;;;;;5092165;28;21061;-82
2022/02/15 10:16:25;;;;;;;9.50;6.50;;;10.50;99.90;;;;;;5110722;28;20374;-83
2022/02/15 10:18:56;;;;;;;9.47;6.10;;;10.60;99.90;;;;;;5109395;28;20355;-85
2022/02/15 10:21:21;;;;;;;8.00;5.82;;;10.70;99.90;;;;;;5116319;27;20369;-82
2022/02/15 10:23:53;;;;;;;9.70;6.20;;;10.70;99.90;;;;;;5131153;27;20369;-82
2022/02/15 10:26:19;;;;;;;8.80;5.55;;;10.60;99.90;;;;;;5133068;27;20456;-81
2022/02/15 10:28:45;;;;;;;9.30;6.28;;;10.40;99.90;;;;;;5114799;28;20365;-82
2022/02/15 10:31:14;;;;;;;10.20;5.60;;;10.60;99.90;;;;;;5132658;27;20422;-83
2022/02/15 10:33:45;;;;;;;8.60;5.80;;;10.90;99.90;;;;;;5134011;27;20389;-83
2022/02/15 10:36:13;;;;;;;10.00;6.03;;;11.10;99.90;;;;;;5115513;28;20455;-82
2022/02/15 10:38:53;;;;;;;8.60;5.97;;;11.10;99.90;;;;;;5133163;28;20391;-83
2022/02/15 10:41:21;;;;;;;9.70;6.40;;;11.30;99.90;;;;;;5109023;28;20401;-82
2022/02/15 10:43:51;;;;;;;8.65;5.90;;;11.20;99.90;;;;;;5099964;28;20401;-84
2022/02/15 10:46:25;;;;;;;7.68;5.35;;;11.00;99.90;;;;;;5107835;28;20388;-84
2022/02/15 10:48:52;;;;;;;10.45;5.55;;;11.00;99.90;;;;;;5092895;28;20882;-83
2022/02/15 10:51:19;;;;;;;8.30;5.20;;;11.00;99.90;;;;;;5126709;28;20369;-84
2022/02/15 10:53:45;;;;;;;8.57;5.40;;;11.00;99.90;;;;;;5099371;28;20476;-84
2022/02/15 10:56:11;;;;;;;8.40;5.72;;;11.00;99.90;;;;;;5102768;28;20387;-83
2022/02/15 10:58:37;;;;;;;9.15;5.25;;;11.10;99.90;;;;;;5121398;28;20842;-82
2022/02/15 11:01:08;;;;;;;9.10;5.50;;;11.00;99.90;;;;;;5119511;28;20397;-84
2022/02/15 11:03:38;;;;;;;9.43;5.85;;;11.00;99.90;;;;;;5078107;28;20485;-85
2022/02/15 11:06:05;;;;;;;8.25;5.10;;;11.10;99.90;;;;;;5090715;28;20391;-83
2022/02/15 11:08:32;;;;;;;7.78;5.15;;;11.10;99.90;;;;;;5111946;28;20450;-84
2022/02/15 11:11:21;;;;;;;7.22;5.90;;;11.20;99.90;;;;;;5104887;28;20400;-83
2022/02/15 11:13:48;;;;;;;16.70;11.50;;;11.40;99.90;;;;;;5095156;28;20921;-84
2022/02/15 11:16:16;;;;;;;9.57;7.38;;;11.60;99.90;;;;;;5098427;28;20374;-84
2022/02/15 11:18:44;;;;;;;20.77;15.68;;;11.50;99.90;;;;;;5111038;28;20453;-83
2022/02/15 11:21:20;;;;;;;11.73;9.45;;;11.20;99.90;;;;;;5092445;28;20401;-83
2022/02/15 11:23:58;;;;;;;12.82;10.05;;;11.30;99.90;;;;;;5109760;28;20477;-84
2022/02/15 11:26:31;;;;;;;18.20;13.07;;;11.40;99.90;;;;;;5110181;28;20477;-84
2022/02/15 11:28:57;;;;;;;8.85;6.68;;;11.60;99.90;;;;;;5092381;28;20453;-84
2022/02/15 11:31:29;;;;;;;10.23;7.05;;;11.60;99.90;;;;;;5109881;28;20387;-84
2022/02/15 11:33:56;;;;;;;12.15;8.55;;;11.40;99.90;;;;;;5091284;28;20714;-84
2022/02/15 11:36:23;;;;;;;10.02;6.63;;;11.10;99.90;;;;;;5114009;28;20365;-84
2022/02/15 11:39:00;;;;;;;9.63;6.40;;;11.10;99.90;;;;;;5095468;28;20486;-83
2022/02/15 11:41:28;;;;;;;8.80;6.60;;;11.00;99.90;;;;;;5108484;28;20881;-84
2022/02/15 11:43:57;;;;;;;8.65;6.80;;;10.90;99.90;;;;;;5101331;28;20403;-83
2022/02/15 11:46:43;;;;;;;8.05;6.45;;;11.10;99.90;;;;;;5095389;28;20380;-82
2022/02/15 11:49:17;;;;;;;8.93;6.30;;;11.20;99.90;;;;;;5077697;28;20376;-84
2022/02/15 11:51:44;;;;;;;9.45;6.60;;;11.30;99.90;;;;;;5111840;28;20398;-83
2022/02/15 11:54:11;;;;;;;9.85;6.95;;;11.50;99.90;;;;;;5114411;28;20880;-83
2022/02/15 11:56:38;;;;;;;8.40;6.65;;;11.60;99.90;;;;;;5113565;28;20395;-84
2022/02/15 11:59:14;;;;;;;8.23;6.07;;;11.50;99.90;;;;;;5080691;28;20384;-83
2022/02/15 12:01:42;;;;;;;8.57;6.07;;;11.60;99.90;;;;;;5074274;28;20421;-84
2022/02/15 12:04:13;;;;;;;9.00;6.23;;;11.50;99.90;;;;;;5073228;28;20392;-83
2022/02/15 12:06:41;;;;;;;8.18;6.82;;;11.30;99.90;;;;;;5073778;28;20929;-82
2022/02/15 12:09:08;;;;;;;13.53;10.50;;;11.20;99.90;;;;;;5075646;28;20385;-81
2022/02/15 12:11:39;;;;;;;10.65;8.18;;;11.00;99.90;;;;;;5113028;28;20427;-81
2022/02/15 12:14:15;;;;;;;8.90;6.82;;;11.00;99.90;;;;;;5093680;28;20398;-82
2022/02/15 12:16:49;;;;;;;10.40;7.20;;;10.90;99.90;;;;;;5111761;28;20387;-82
2022/02/15 12:19:28;;;;;;;9.77;7.20;;;10.70;99.90;;;;;;5096118;28;20444;-82
2022/02/15 12:22:10;;;;;;;9.50;7.20;;;10.70;99.90;;;;;;5097351;28;20407;-82
2022/02/15 12:24:36;;;;;;;11.75;8.45;;;10.60;99.90;;;;;;5116228;28;20386;-82
2022/02/15 12:27:03;;;;;;;12.13;9.38;;;10.60;99.90;;;;;;5115680;28;20895;-83
2022/02/15 12:29:29;;;;;;;11.77;8.05;;;10.60;99.90;;;;;;5113593;28;20391;-82
2022/02/15 12:31:57;;;;;;;12.55;9.45;;;10.40;99.90;;;;;;5115501;27;20389;-82
2022/02/15 12:34:23;;;;;;;12.55;7.93;;;10.50;99.90;;;;;;5114715;28;20395;-82
2022/02/15 12:36:49;;;;;;;11.40;8.10;;;10.40;99.90;;;;;;5116488;28;20374;-81
2022/02/15 12:39:15;;;;;;;8.70;7.43;;;10.50;99.90;;;;;;5096296;28;20390;-81
2022/02/15 12:41:43;;;;;;;9.32;7.35;;;10.50;99.90;;;;;;5117440;28;20424;-81
2022/02/15 12:44:08;;;;;;;10.63;7.80;;;10.40;99.90;;;;;;5119011;28;20390;-81
2022/02/15 12:46:35;;;;;;;9.13;8.00;;;10.30;99.90;;;;;;5119294;28;20891;-81
2022/02/15 12:49:07;;;;;;;8.93;7.40;;;10.20;99.90;;;;;;5117481;28;20378;-83
2022/02/15 12:51:34;;;;;;;11.75;8.15;;;10.20;99.90;;;;;;5110095;28;20402;-82
2022/02/15 12:54:01;;;;;;;10.25;7.75;;;10.10;99.90;;;;;;5113471;28;20466;-82
2022/02/15 12:56:32;;;;;;;8.60;7.60;;;10.20;99.90;;;;;;5093081;28;20423;-81